Aviation Digital Data Service (ADDS)

Output produced by METARs form (0516 UTC 23 March 2018)
found at http://aviationweather.gov/adds/metars/
METAR text: KPRB 230453Z AUTO 32008KT 10SM OVC022 09/06 A3008 RMK AO2 SLP185 T00940061
Conditions at: KPRB (PASO ROBLES , CA, US) observed 0453 UTC 23 March 2018
Temperature: 9.4°C (49°F)
Dewpoint: 6.1°C (43°F) [RH = 80%]
Pressure (altimeter): 30.08 inches Hg (1018.7 mb)
[Sea-level pressure: 1018.5 mb]
Winds: from the NW (320 degrees) at 9 MPH (8 knots; 4.2 m/s)
Visibility: 10 or more miles (16+ km)
Ceiling: 2200 feet AGL
Clouds: overcast cloud deck at 2200 feet AGL
Weather: automated observation with no human augmentation;
there may or may not be significant weather present at this time